createdAt,value
2022-10-30T00:03:08.795Z,101.20
2022-10-30T00:08:14.725Z,94.35
2022-10-30T00:13:21.592Z,104.30
2022-10-30T00:18:27.144Z,92.38
2022-10-30T00:28:38.421Z,76.85
2022-10-30T00:33:44.153Z,115.05
2022-10-30T00:38:49.435Z,109.28
2022-10-30T00:43:57.787Z,111.53
2022-10-30T00:49:05.886Z,119.82
2022-10-30T00:54:12.225Z,121.82
2022-10-30T00:59:25.105Z,105.03
2022-10-30T01:04:31.193Z,109.10
2022-10-30T01:09:41.167Z,96.40
2022-10-30T01:14:58.847Z,99.80
2022-10-30T01:20:11.736Z,96.72
2022-10-30T01:25:39.615Z,83.30
2022-10-30T01:31:09.713Z,68.78
2022-10-30T01:36:26.703Z,91.57
2022-10-30T01:41:32.914Z,78.80
2022-10-30T01:46:42.779Z,73.70
2022-10-30T01:51:51.802Z,67.18
2022-10-30T01:57:18.324Z,72.22
2022-10-30T02:02:27.645Z,82.97
2022-10-30T02:07:33.421Z,63.33
2022-10-30T02:12:38.709Z,76.03
2022-10-30T02:17:44.489Z,79.22
2022-10-30T02:22:54.646Z,64.00
2022-10-30T02:28:08.585Z,64.80
2022-10-30T02:33:14.868Z,52.42
2022-10-30T02:38:20.489Z,55.90
2022-10-30T02:43:28.211Z,59.90
2022-10-30T02:48:34.561Z,66.13
2022-10-30T02:53:40.143Z,60.78
2022-10-30T02:58:47.352Z,52.53
2022-10-30T03:03:55.976Z,56.00
2022-10-30T03:09:01.670Z,59.05
2022-10-30T03:14:10.924Z,50.13
2022-10-30T03:19:34.276Z,42.42
2022-10-30T03:24:40.280Z,54.30
2022-10-30T03:29:51.139Z,40.78
2022-10-30T03:35:02.673Z,42.80
2022-10-30T03:40:17.985Z,36.42
2022-10-30T03:45:23.635Z,43.13
2022-10-30T03:50:29.407Z,40.95
2022-10-30T03:55:35.474Z,56.42
2022-10-30T04:00:41.184Z,49.95
2022-10-30T04:05:52.524Z,48.25
2022-10-30T04:10:58.046Z,52.67
2022-10-30T04:21:09.077Z,51.67
2022-10-30T04:26:16.574Z,50.97
2022-10-30T04:31:23.849Z,45.30
2022-10-30T04:41:40.919Z,44.60
2022-10-30T04:46:54.245Z,43.08
2022-10-30T04:52:00.870Z,37.20
2022-10-30T04:57:07.425Z,28.77
2022-10-30T05:02:13.434Z,42.75
2022-10-30T05:07:19.896Z,37.55
2022-10-30T05:12:26.484Z,28.05
2022-10-30T05:17:34.071Z,36.78
2022-10-30T05:22:39.204Z,35.08
2022-10-30T05:27:45.459Z,33.30
2022-10-30T05:32:51.001Z,35.22
2022-10-30T05:37:56.287Z,37.50
2022-10-30T05:43:02.287Z,41.72
2022-10-30T05:48:08.872Z,35.63
2022-10-30T05:53:21.452Z,38.67
2022-10-30T05:58:27.421Z,37.85
2022-10-30T06:03:36.126Z,26.73
2022-10-30T06:08:41.980Z,31.40
2022-10-30T06:19:25.472Z,36.05
2022-10-30T06:24:35.881Z,29.95
2022-10-30T06:29:50.809Z,29.92
2022-10-30T06:34:56.319Z,34.50
2022-10-30T06:40:03.259Z,30.35
2022-10-30T06:45:29.877Z,26.58
2022-10-30T06:50:39.639Z,34.67
2022-10-30T06:55:47.494Z,30.88
2022-10-30T07:01:11.584Z,35.33
2022-10-30T07:11:54.505Z,36.83
2022-10-30T07:17:21.120Z,33.05
2022-10-30T07:22:34.416Z,33.38
2022-10-30T07:27:51.025Z,34.80
2022-10-30T07:33:12.809Z,27.60
2022-10-30T07:38:42.002Z,36.15
2022-10-30T07:44:03.417Z,32.55
2022-10-30T07:49:29.112Z,33.13
2022-10-30T07:54:43.944Z,36.33
2022-10-30T08:00:12.996Z,29.42
2022-10-30T08:05:18.857Z,25.60
2022-10-30T08:10:49.436Z,33.63
2022-10-30T08:15:58.828Z,28.13
2022-10-30T08:21:05.041Z,38.53
2022-10-30T08:26:13.665Z,27.02
2022-10-30T08:31:22.738Z,26.90
2022-10-30T08:36:51.309Z,39.70
2022-10-30T08:41:59.849Z,35.22
2022-10-30T08:47:15.101Z,38.47
2022-10-30T08:52:20.655Z,40.03
2022-10-30T08:57:32.310Z,26.25
2022-10-30T09:08:14.297Z,33.13
2022-10-30T09:13:38.406Z,39.30
2022-10-30T09:18:49.298Z,46.28
2022-10-30T09:23:56.044Z,42.58
2022-10-30T09:29:23.812Z,36.58
2022-10-30T09:34:44.127Z,43.28
2022-10-30T09:39:59.905Z,36.22
2022-10-30T09:45:27.868Z,46.28
2022-10-30T09:50:38.953Z,45.38
2022-10-30T09:55:50.602Z,27.08
2022-10-30T10:01:03.048Z,45.78
2022-10-30T10:12:03.293Z,47.55
2022-10-30T10:17:22.090Z,49.88
2022-10-30T10:22:29.648Z,25.52
2022-10-30T10:27:51.720Z,42.53
2022-10-30T10:33:13.194Z,39.47
2022-10-30T10:38:36.782Z,29.02
2022-10-30T10:44:04.070Z,36.88
2022-10-30T10:49:18.357Z,43.75
2022-10-30T10:54:30.685Z,49.80
2022-10-30T10:59:36.290Z,39.38
2022-10-30T11:04:53.462Z,34.03
2022-10-30T11:10:05.212Z,41.80
2022-10-30T11:15:25.924Z,37.83
2022-10-30T11:20:32.896Z,41.75
2022-10-30T11:25:38.850Z,51.15
2022-10-30T11:30:47.517Z,49.60
2022-10-30T11:35:52.748Z,34.15
2022-10-30T11:41:07.097Z,53.83
2022-10-30T11:46:21.910Z,63.97
2022-10-30T11:51:49.379Z,37.92
2022-10-30T11:56:58.368Z,54.15
2022-10-30T12:02:06.129Z,40.78
2022-10-30T12:07:23.907Z,60.78
2022-10-30T12:12:38.647Z,48.67
2022-10-30T12:17:47.306Z,45.97
2022-10-30T12:22:53.213Z,47.80
2022-10-30T12:28:20.471Z,54.70
2022-10-30T12:33:25.996Z,63.58
2022-10-30T12:38:31.835Z,59.55
2022-10-30T12:43:38.370Z,77.63
2022-10-30T12:48:47.701Z,72.65
2022-10-30T12:54:00.081Z,78.03
2022-10-30T12:59:26.349Z,70.10
2022-10-30T13:04:36.054Z,69.22
2022-10-30T13:09:41.655Z,73.15
2022-10-30T13:14:48.177Z,76.57
2022-10-30T13:19:53.727Z,75.82
2022-10-30T13:25:04.027Z,69.65
2022-10-30T13:30:17.927Z,85.10
2022-10-30T13:35:39.159Z,84.47
2022-10-30T13:40:52.990Z,72.78
2022-10-30T13:46:01.248Z,75.72
2022-10-30T13:51:21.064Z,86.18
2022-10-30T13:56:26.735Z,71.30
2022-10-30T14:01:37.971Z,79.97
2022-10-30T14:06:58.618Z,77.93
2022-10-30T14:12:23.934Z,83.55
2022-10-30T14:17:29.461Z,86.07
2022-10-30T14:22:35.685Z,79.78
2022-10-30T14:27:41.168Z,96.40
2022-10-30T14:32:51.484Z,90.97
2022-10-30T14:37:58.598Z,93.43
2022-10-30T14:43:09.388Z,84.35
2022-10-30T14:48:14.582Z,81.57
2022-10-30T14:53:20.531Z,83.93
2022-10-30T14:58:33.453Z,73.70
2022-10-30T15:03:56.859Z,77.45
2022-10-30T15:09:18.225Z,70.22
2022-10-30T15:14:52.537Z,68.82
2022-10-30T15:19:55.928Z,75.22
2022-10-30T15:25:01.671Z,74.40
2022-10-30T15:35:25.829Z,65.32
2022-10-30T15:40:32.640Z,67.82
2022-10-30T15:45:39.959Z,58.20
2022-10-30T15:51:09.843Z,59.47
2022-10-30T15:56:25.645Z,59.15
2022-10-30T16:01:36.296Z,56.33
2022-10-30T16:06:51.223Z,51.60
2022-10-30T16:11:58.420Z,57.33
2022-10-30T16:17:05.007Z,59.42
2022-10-30T16:22:15.795Z,48.67
2022-10-30T16:27:22.573Z,53.10
2022-10-30T16:32:29.042Z,50.83
2022-10-30T16:37:39.992Z,52.08
2022-10-30T16:43:05.760Z,51.45
2022-10-30T16:48:15.394Z,42.78
2022-10-30T16:53:23.477Z,44.60
2022-10-30T16:58:31.547Z,49.03
2022-10-30T17:03:39.709Z,48.30
2022-10-30T17:08:45.966Z,56.97
2022-10-30T17:13:57.329Z,61.45
2022-10-30T17:19:04.670Z,55.47
2022-10-30T17:24:21.897Z,53.30
2022-10-30T17:29:40.243Z,54.63
2022-10-30T17:34:45.687Z,57.60
2022-10-30T17:39:53.649Z,69.65
2022-10-30T17:45:08.616Z,73.50
2022-10-30T17:50:14.393Z,68.43
2022-10-30T18:00:24.377Z,56.75
2022-10-30T18:05:31.681Z,62.27
2022-10-30T18:10:37.183Z,56.72
2022-10-30T18:15:47.008Z,59.58
2022-10-30T18:20:52.934Z,55.15
2022-10-30T18:25:58.460Z,49.30
2022-10-30T18:31:03.678Z,48.55
2022-10-30T18:36:19.753Z,46.57
2022-10-30T18:46:30.781Z,42.72
2022-10-30T18:51:36.401Z,35.78
2022-10-30T18:56:41.664Z,38.38
2022-10-30T19:01:47.773Z,37.92
2022-10-30T19:06:53.482Z,44.80
2022-10-30T19:11:59.033Z,39.55
2022-10-30T19:17:05.480Z,42.58
2022-10-30T19:22:12.056Z,44.13
2022-10-30T19:27:17.462Z,49.92
2022-10-30T19:37:27.595Z,37.95
2022-10-30T19:42:33.659Z,42.23
2022-10-30T19:47:38.842Z,39.17
2022-10-30T19:52:44.403Z,37.83
2022-10-30T19:57:49.997Z,39.75
2022-10-30T20:02:56.133Z,34.05
2022-10-30T20:08:08.703Z,40.97
2022-10-30T20:13:14.571Z,38.10
2022-10-30T20:18:21.647Z,37.45
2022-10-30T20:23:27.193Z,36.40
2022-10-30T20:33:37.386Z,41.80
2022-10-30T20:38:42.720Z,38.90
2022-10-30T20:43:47.985Z,40.97
2022-10-30T20:48:53.583Z,32.77
2022-10-30T20:53:59.380Z,41.25
2022-10-30T21:04:09.565Z,32.83
2022-10-30T21:09:14.702Z,33.78
2022-10-30T21:14:20.287Z,29.60
2022-10-30T21:19:25.801Z,26.65
2022-10-30T21:24:36.889Z,33.92
2022-10-30T21:29:42.206Z,34.15
2022-10-30T21:34:47.509Z,29.73
2022-10-30T21:39:52.829Z,29.90
2022-10-30T21:44:58.482Z,20.40
2022-10-30T21:55:19.424Z,16.48
2022-10-30T22:00:25.022Z,20.50
2022-10-30T22:05:30.863Z,22.15
2022-10-30T22:10:36.283Z,21.33
2022-10-30T22:15:41.722Z,22.20
2022-10-30T22:20:46.856Z,17.87
2022-10-30T22:26:02.774Z,16.57
2022-10-30T22:31:08.924Z,16.38
2022-10-30T22:36:16.508Z,18.85
2022-10-30T22:41:25.387Z,15.68
2022-10-30T22:46:52.653Z,17.10
2022-10-30T22:51:57.419Z,16.45
2022-10-30T22:57:02.950Z,18.90
2022-10-30T23:02:08.464Z,20.52
2022-10-30T23:07:14.020Z,19.30
2022-10-30T23:12:19.640Z,15.33
2022-10-30T23:17:25.073Z,19.52
2022-10-30T23:22:31.635Z,20.42
2022-10-30T23:27:37.955Z,20.15
2022-10-30T23:32:44.100Z,17.55
2022-10-30T23:37:49.678Z,16.90
2022-10-30T23:42:57.311Z,17.73
2022-10-30T23:48:02.689Z,13.35
2022-10-30T23:53:09.353Z,18.90
